Time;durP1;ratioP1;P1;durP2;ratioP2;P2;SDS_P1;SDS_P2;PMS_P1;PMS_P2;Temp;Humidity;BMP_temperature;BMP_pressure;BME280_temperature;BME280_humidity;BME280_pressure;Samples;Min_cycle;Max_cycle;Signal;HPM_P1;HPM_P2
2022/05/23 00:01:42;;;;;;;1.10;0.98;;;20.90;53.30;;;;;;5083355;28;20442;-68
2022/05/23 00:04:08;;;;;;;1.73;1.20;;;20.90;53.30;;;;;;5081249;28;20032;-67
2022/05/23 00:06:35;;;;;;;1.92;1.25;;;20.90;53.30;;;;;;5082191;28;20036;-67
2022/05/23 00:09:00;;;;;;;1.70;1.00;;;20.90;53.40;;;;;;5084622;28;20028;-67
2022/05/23 00:11:26;;;;;;;2.47;1.10;;;20.90;53.40;;;;;;5078748;28;20036;-67
2022/05/23 00:13:52;;;;;;;1.67;1.00;;;20.90;53.40;;;;;;5082806;28;20032;-67
2022/05/23 00:16:21;;;;;;;1.77;1.20;;;20.90;53.40;;;;;;5081491;28;20086;-66
2022/05/23 00:18:48;;;;;;;2.53;1.25;;;20.90;53.30;;;;;;5079209;28;20074;-68
2022/05/23 00:21:15;;;;;;;2.10;1.30;;;20.90;53.30;;;;;;5082288;28;20071;-68
2022/05/23 00:23:41;;;;;;;4.28;1.10;;;20.90;53.30;;;;;;5082342;28;20078;-66
2022/05/23 00:26:07;;;;;;;1.52;1.00;;;20.90;53.30;;;;;;5064873;28;20448;-67
2022/05/23 00:28:33;;;;;;;2.22;1.27;;;20.90;53.30;;;;;;5082069;28;20036;-67
2022/05/23 00:30:58;;;;;;;1.67;1.02;;;20.90;53.30;;;;;;5081890;28;20028;-67
2022/05/23 00:36:08;;;;;;;1.42;1.20;;;20.90;53.30;;;;;;5078291;28;20040;-66
2022/05/23 00:38:34;;;;;;;1.55;1.05;;;20.90;53.20;;;;;;5079099;28;20377;-68
2022/05/23 00:44:01;;;;;;;1.10;1.00;;;20.80;53.20;;;;;;5078425;28;20037;-68
2022/05/23 00:46:27;;;;;;;1.77;1.13;;;20.80;53.10;;;;;;5079901;28;20069;-67
2022/05/23 00:48:53;;;;;;;3.70;1.17;;;20.80;53.10;;;;;;5084652;28;20041;-67
2022/05/23 00:51:19;;;;;;;1.70;1.00;;;20.90;53.20;;;;;;5089092;28;20074;-69
2022/05/23 00:53:53;;;;;;;3.08;1.13;;;20.90;53.20;;;;;;5086060;28;20039;-67
2022/05/23 00:56:22;;;;;;;1.58;1.15;;;20.80;53.10;;;;;;5088794;28;20043;-67
2022/05/23 00:58:53;;;;;;;2.17;1.00;;;20.80;53.10;;;;;;5089163;28;20040;-66
2022/05/23 01:01:22;;;;;;;1.85;1.10;;;20.80;53.00;;;;;;5088663;28;20032;-69
2022/05/23 01:03:48;;;;;;;2.53;1.10;;;20.80;53.00;;;;;;5086944;28;20054;-67
2022/05/23 01:06:14;;;;;;;1.77;0.95;;;20.80;53.00;;;;;;5087756;28;20040;-69
2022/05/23 01:08:41;;;;;;;1.20;1.10;;;20.80;53.00;;;;;;5084381;28;20036;-66
2022/05/23 01:11:09;;;;;;;1.58;0.90;;;20.80;53.00;;;;;;5083216;28;20037;-67
2022/05/23 01:13:35;;;;;;;2.25;1.25;;;20.80;53.00;;;;;;5083305;28;20035;-67
2022/05/23 01:16:01;;;;;;;2.10;1.13;;;20.80;53.00;;;;;;5079580;28;20046;-68
2022/05/23 01:18:26;;;;;;;4.13;0.93;;;20.80;53.10;;;;;;5080622;28;20131;-65
2022/05/23 01:20:58;;;;;;;2.17;1.13;;;20.80;53.10;;;;;;5082924;28;20036;-66
2022/05/23 01:23:35;;;;;;;2.83;1.23;;;20.80;53.10;;;;;;5075966;28;20051;-68
2022/05/23 01:26:02;;;;;;;1.17;0.95;;;20.80;53.10;;;;;;5079401;28;20032;-67
2022/05/23 01:28:33;;;;;;;1.30;1.10;;;20.80;53.10;;;;;;5079384;28;20032;-67
2022/05/23 01:30:58;;;;;;;2.25;1.23;;;20.80;53.10;;;;;;5077378;28;20036;-68
2022/05/23 01:33:24;;;;;;;1.45;0.90;;;20.80;53.10;;;;;;5080660;28;20501;-66
2022/05/23 01:35:50;;;;;;;1.30;1.02;;;20.80;53.20;;;;;;5075650;28;20048;-67
2022/05/23 01:38:15;;;;;;;2.95;1.13;;;20.80;53.20;;;;;;5082621;28;20032;-67
2022/05/23 01:40:41;;;;;;;1.27;1.00;;;20.70;53.10;;;;;;5078215;28;20036;-67
2022/05/23 01:43:07;;;;;;;1.20;0.98;;;20.70;53.10;;;;;;5081084;28;20097;-66
2022/05/23 01:45:37;;;;;;;1.55;0.90;;;20.80;53.10;;;;;;5080404;28;20071;-67
2022/05/23 01:48:04;;;;;;;1.80;1.00;;;20.70;53.10;;;;;;5080346;28;20047;-68
2022/05/23 01:50:30;;;;;;;1.80;1.15;;;20.70;53.10;;;;;;5074495;28;20044;-66
2022/05/23 01:52:58;;;;;;;1.50;1.00;;;20.70;53.10;;;;;;5086124;28;20044;-67
2022/05/23 01:55:24;;;;;;;1.40;1.00;;;20.70;53.10;;;;;;5080990;28;20043;-66
2022/05/23 01:57:50;;;;;;;1.58;1.10;;;20.70;53.10;;;;;;5084889;28;20032;-69
2022/05/23 02:03:01;;;;;;;3.05;1.02;;;20.80;53.10;;;;;;5083264;28;20044;-68
2022/05/23 02:05:27;;;;;;;1.30;1.20;;;20.70;53.10;;;;;;5080302;28;20036;-67
2022/05/23 02:07:53;;;;;;;2.72;1.02;;;20.70;53.10;;;;;;5084226;28;20086;-68
2022/05/23 02:10:20;;;;;;;1.95;0.98;;;20.70;53.10;;;;;;5087359;28;20493;-67
2022/05/23 02:12:47;;;;;;;1.23;1.00;;;20.70;53.10;;;;;;5083830;28;20182;-68
2022/05/23 02:15:13;;;;;;;1.00;0.90;;;20.70;53.10;;;;;;5080259;28;20052;-66
2022/05/23 02:17:38;;;;;;;2.80;1.10;;;20.70;53.10;;;;;;5083103;28;20124;-66
2022/05/23 02:20:06;;;;;;;1.30;1.08;;;20.70;53.90;;;;;;5084814;28;20118;-68
2022/05/23 02:22:33;;;;;;;1.60;1.17;;;20.70;53.10;;;;;;5083680;28;20044;-69
2022/05/23 02:24:59;;;;;;;1.65;1.00;;;20.70;53.10;;;;;;5082153;28;20044;-68
2022/05/23 02:27:24;;;;;;;1.17;1.08;;;20.70;53.10;;;;;;5082955;28;20494;-66
2022/05/23 02:29:50;;;;;;;2.30;1.08;;;20.70;53.10;;;;;;5081205;28;20036;-66
2022/05/23 02:32:16;;;;;;;1.50;1.10;;;20.70;53.10;;;;;;5085480;28;20429;-65
2022/05/23 02:34:42;;;;;;;1.33;0.98;;;20.70;53.00;;;;;;5083733;28;20051;-68
2022/05/23 02:37:08;;;;;;;1.92;1.00;;;20.70;53.00;;;;;;5082552;28;20113;-66
2022/05/23 02:39:34;;;;;;;1.33;1.00;;;20.70;53.00;;;;;;5082713;28;20036;-67
2022/05/23 02:42:01;;;;;;;1.23;1.10;;;20.70;53.00;;;;;;5080411;28;20433;-68
2022/05/23 02:44:26;;;;;;;1.60;1.08;;;20.70;53.00;;;;;;5086882;28;20041;-69
2022/05/23 02:46:53;;;;;;;3.30;1.27;;;20.70;53.00;;;;;;5087653;28;20414;-66
2022/05/23 02:49:20;;;;;;;2.00;1.10;;;20.70;53.00;;;;;;5081505;28;20044;-67
2022/05/23 02:51:45;;;;;;;1.10;0.90;;;20.70;53.00;;;;;;5079844;28;20097;-67
2022/05/23 02:54:11;;;;;;;1.55;1.02;;;20.70;53.00;;;;;;5085634;28;20033;-69
2022/05/23 02:56:37;;;;;;;1.20;1.10;;;20.70;53.00;;;;;;5081343;28;20051;-69
2022/05/23 02:59:03;;;;;;;1.80;1.30;;;20.70;53.00;;;;;;5081662;28;20028;-67
2022/05/23 03:01:29;;;;;;;2.42;1.30;;;20.70;53.00;;;;;;5080151;28;20052;-66
2022/05/23 03:03:55;;;;;;;1.63;1.20;;;20.70;53.00;;;;;;5080837;28;20083;-68
2022/05/23 03:06:21;;;;;;;1.33;1.00;;;20.70;53.00;;;;;;5079363;28;20517;-69
2022/05/23 03:08:46;;;;;;;1.55;1.20;;;20.70;53.00;;;;;;5077536;28;20781;-67
2022/05/23 03:11:12;;;;;;;1.58;1.00;;;20.70;53.00;;;;;;5080227;28;20454;-67
2022/05/23 03:13:38;;;;;;;1.30;1.20;;;20.70;53.00;;;;;;5083539;28;20041;-66
2022/05/23 03:16:12;;;;;;;1.52;1.15;;;20.60;53.00;;;;;;5077154;28;20056;-67
2022/05/23 03:18:38;;;;;;;1.20;1.10;;;20.60;53.00;;;;;;5077579;28;20048;-68
2022/05/23 03:21:06;;;;;;;1.25;1.08;;;20.70;53.00;;;;;;5082485;28;20382;-69
2022/05/23 03:29:07;;;;;;;1.27;1.10;;;20.70;53.00;;;;;;5079848;28;20040;-65
2022/05/23 03:31:33;;;;;;;1.17;1.05;;;20.60;53.00;;;;;;5083695;28;20043;-67
2022/05/23 03:33:59;;;;;;;2.72;1.20;;;20.60;53.10;;;;;;5080445;28;20705;-68
2022/05/23 03:36:25;;;;;;;2.55;1.05;;;20.60;53.00;;;;;;5084783;28;20032;-65
2022/05/23 03:38:51;;;;;;;1.30;1.10;;;20.60;53.00;;;;;;5079176;28;20037;-69
2022/05/23 03:41:17;;;;;;;1.15;1.00;;;20.60;53.00;;;;;;5080290;28;20070;-68
2022/05/23 03:43:42;;;;;;;1.67;1.25;;;20.60;53.00;;;;;;5076703;28;20047;-66
2022/05/23 03:46:10;;;;;;;2.63;1.20;;;20.70;53.00;;;;;;5083752;28;20078;-68
2022/05/23 03:48:37;;;;;;;1.20;1.10;;;20.60;53.00;;;;;;5082672;28;20032;-66
2022/05/23 03:51:03;;;;;;;1.45;1.10;;;20.60;53.00;;;;;;5082861;28;20425;-68
2022/05/23 03:53:30;;;;;;;3.28;1.00;;;20.60;53.00;;;;;;5079335;28;20124;-67
2022/05/23 03:55:56;;;;;;;1.65;1.20;;;20.60;53.00;;;;;;5078633;28;20071;-66
2022/05/23 03:58:22;;;;;;;1.85;1.13;;;20.60;53.00;;;;;;5081441;28;20040;-67
2022/05/23 04:00:50;;;;;;;1.20;1.10;;;20.60;53.00;;;;;;5079382;28;20135;-66
2022/05/23 04:03:17;;;;;;;;;;;20.60;53.00;;;;;;5081871;28;20050;-66
2022/05/23 04:05:43;;;;;;;1.73;1.10;;;20.60;53.00;;;;;;5079840;28;19920;-67
2022/05/23 04:08:10;;;;;;;1.40;1.25;;;20.60;53.00;;;;;;5079768;28;20028;-67
2022/05/23 04:10:36;;;;;;;1.27;1.02;;;20.60;53.00;;;;;;5079898;28;20036;-69
2022/05/23 04:13:02;;;;;;;1.88;1.05;;;20.60;53.00;;;;;;5082322;28;20458;-67
2022/05/23 04:15:31;;;;;;;2.47;1.40;;;20.60;53.00;;;;;;5083246;28;20438;-68
2022/05/23 04:17:58;;;;;;;2.05;1.20;;;20.60;53.00;;;;;;5081719;28;20044;-68
2022/05/23 04:20:24;;;;;;;1.27;0.95;;;20.60;53.00;;;;;;5079590;28;20093;-67
2022/05/23 04:22:49;;;;;;;2.10;1.15;;;20.60;52.90;;;;;;5078922;28;20439;-64
2022/05/23 04:25:16;;;;;;;2.70;1.00;;;20.60;53.00;;;;;;5077361;28;20049;-69
2022/05/23 04:27:42;;;;;;;1.35;1.23;;;20.60;52.90;;;;;;5083708;28;20089;-67
2022/05/23 04:30:09;;;;;;;1.00;0.90;;;20.60;52.90;;;;;;5074767;28;20033;-67
2022/05/23 04:35:22;;;;;;;1.70;1.10;;;20.60;52.90;;;;;;5081688;28;20286;-65
2022/05/23 04:37:50;;;;;;;1.30;1.20;;;20.60;52.90;;;;;;5078960;28;20403;-68
2022/05/23 04:40:20;;;;;;;1.02;0.93;;;20.60;52.90;;;;;;5081746;28;20032;-69
2022/05/23 04:42:46;;;;;;;1.73;1.17;;;20.60;52.90;;;;;;5084669;28;20054;-68
2022/05/23 04:45:13;;;;;;;1.88;1.30;;;20.60;52.90;;;;;;5080579;28;20074;-66
2022/05/23 04:50:24;;;;;;;7.30;1.40;;;20.60;52.90;;;;;;5073880;28;20044;-65
2022/05/23 04:52:50;;;;;;;3.97;1.40;;;20.60;53.10;;;;;;5085246;28;20160;-70
2022/05/23 04:55:17;;;;;;;2.50;1.30;;;20.60;53.10;;;;;;5080967;28;20043;-66
2022/05/23 04:57:43;;;;;;;1.63;1.20;;;20.60;53.10;;;;;;5081237;28;20037;-68
2022/05/23 05:00:13;;;;;;;6.93;1.52;;;20.60;53.10;;;;;;5087187;28;20031;-73
2022/05/23 05:02:39;;;;;;;3.50;1.40;;;20.60;53.10;;;;;;5085512;28;20050;-68
2022/05/23 05:05:06;;;;;;;2.67;1.20;;;20.60;53.10;;;;;;5081837;28;20471;-66
2022/05/23 05:07:32;;;;;;;1.98;1.33;;;20.60;53.10;;;;;;5085537;28;20483;-68
2022/05/23 05:09:58;;;;;;;1.42;1.13;;;20.60;53.10;;;;;;5086283;28;20039;-68
2022/05/23 05:12:23;;;;;;;4.25;1.55;;;20.60;53.10;;;;;;5080985;28;20039;-66
2022/05/23 05:14:49;;;;;;;2.42;1.20;;;20.60;53.10;;;;;;5078881;28;20042;-67
2022/05/23 05:17:15;;;;;;;1.85;1.50;;;20.60;53.10;;;;;;5081294;28;20043;-68
2022/05/23 05:19:41;;;;;;;1.88;1.30;;;20.60;53.20;;;;;;5081052;28;20427;-68
2022/05/23 05:22:07;;;;;;;3.22;1.60;;;20.60;53.10;;;;;;5080410;28;20043;-68
2022/05/23 05:24:32;;;;;;;1.52;1.30;;;20.60;53.10;;;;;;5082080;28;20040;-67
2022/05/23 05:27:00;;;;;;;2.67;1.40;;;20.60;53.10;;;;;;5083374;28;20040;-67
2022/05/23 05:29:26;;;;;;;2.38;1.60;;;20.60;53.10;;;;;;5065547;28;20036;-66
2022/05/23 05:31:55;;;;;;;3.17;1.30;;;20.60;53.10;;;;;;5084099;28;20032;-66
2022/05/23 05:34:23;;;;;;;2.47;1.40;;;20.70;53.10;;;;;;5081426;28;20138;-67
2022/05/23 05:36:54;;;;;;;2.50;1.35;;;20.70;53.10;;;;;;5082629;28;20055;-66
2022/05/23 05:39:23;;;;;;;2.92;1.38;;;20.70;53.10;;;;;;5076158;28;20054;-64
2022/05/23 05:42:01;;;;;;;2.33;1.40;;;20.70;53.10;;;;;;5076752;28;20035;-65
2022/05/23 05:44:32;;;;;;;3.95;1.55;;;20.70;53.30;;;;;;5089697;28;20074;-67
2022/05/23 05:47:00;;;;;;;4.93;1.65;;;20.80;53.50;;;;;;5085368;28;20094;-65
2022/05/23 05:49:31;;;;;;;3.05;1.58;;;20.80;53.50;;;;;;5096511;28;20044;-69
2022/05/23 05:52:01;;;;;;;2.97;1.80;;;20.80;53.60;;;;;;5091769;28;20072;-68
2022/05/23 05:54:29;;;;;;;6.53;1.67;;;20.80;53.80;;;;;;5083766;28;20040;-69
2022/05/23 05:56:59;;;;;;;8.63;1.70;;;20.80;53.90;;;;;;5085185;28;20040;-69
2022/05/23 05:59:26;;;;;;;3.67;1.60;;;20.90;54.00;;;;;;5078887;28;20037;-71
2022/05/23 06:01:51;;;;;;;3.50;1.60;;;20.90;54.20;;;;;;5083781;28;20040;-69
2022/05/23 06:04:17;;;;;;;4.80;1.60;;;20.90;54.10;;;;;;5087291;28;20044;-68
2022/05/23 06:12:12;;;;;;;7.50;1.73;;;21.00;54.40;;;;;;5088816;28;20047;-67
2022/05/23 06:14:37;;;;;;;6.50;1.70;;;21.00;54.50;;;;;;5089127;28;20040;-67
2022/05/23 06:17:08;;;;;;;5.00;1.50;;;21.00;54.60;;;;;;5087345;28;20036;-70
2022/05/23 06:19:41;;;;;;;8.00;1.90;;;21.00;54.70;;;;;;5087484;28;20048;-69
2022/05/23 06:22:07;;;;;;;6.70;2.58;;;21.10;54.80;;;;;;5085521;28;20803;-66
2022/05/23 06:24:33;;;;;;;10.45;2.15;;;21.10;54.80;;;;;;5085645;28;20554;-70
2022/05/23 06:27:00;;;;;;;3.72;1.75;;;21.20;54.80;;;;;;5085406;28;20055;-70
2022/05/23 06:29:26;;;;;;;8.30;1.98;;;21.20;54.80;;;;;;5088828;28;20040;-71
2022/05/23 06:31:52;;;;;;;7.55;2.00;;;21.20;54.80;;;;;;5089094;28;20043;-67
2022/05/23 06:34:18;;;;;;;4.22;2.13;;;21.30;54.80;;;;;;5086502;28;20038;-70
2022/05/23 06:36:43;;;;;;;10.07;2.20;;;21.30;54.70;;;;;;5086806;28;20040;-70
2022/05/23 06:39:09;;;;;;;7.72;2.03;;;21.30;54.60;;;;;;5080290;28;20530;-68
2022/05/23 06:41:35;;;;;;;6.70;2.00;;;21.40;54.70;;;;;;5082129;28;20509;-68
2022/05/23 06:44:01;;;;;;;5.25;2.22;;;21.40;54.70;;;;;;5084764;28;20036;-69
2022/05/23 06:46:27;;;;;;;6.03;2.35;;;21.50;54.70;;;;;;5086953;28;20032;-69
2022/05/23 06:48:53;;;;;;;4.32;2.20;;;21.50;54.60;;;;;;5078999;28;20040;-69
2022/05/23 06:51:19;;;;;;;6.65;1.83;;;21.50;54.50;;;;;;5073609;28;20044;-69
2022/05/23 06:53:45;;;;;;;4.28;2.00;;;21.50;54.40;;;;;;5083142;28;20762;-69
2022/05/23 06:56:12;;;;;;;7.13;1.98;;;21.50;54.30;;;;;;5078254;28;20036;-70
2022/05/23 06:58:39;;;;;;;3.90;2.00;;;21.50;54.20;;;;;;5078446;28;20136;-70
2022/05/23 07:01:05;;;;;;;6.97;2.20;;;21.50;54.10;;;;;;5074304;28;20037;-69
2022/05/23 07:03:31;;;;;;;6.57;2.03;;;21.60;54.10;;;;;;5088429;28;20032;-68
2022/05/23 07:14:11;;;;;;;3.92;1.80;;;21.60;53.80;;;;;;5086741;28;20097;-69
2022/05/23 07:16:37;;;;;;;3.10;1.90;;;21.60;53.80;;;;;;5085509;28;20518;-70
2022/05/23 07:19:06;;;;;;;4.80;1.77;;;21.60;53.80;;;;;;5077142;28;20497;-68
2022/05/23 07:21:32;;;;;;;4.13;2.20;;;21.60;53.80;;;;;;5095475;28;20059;-69
2022/05/23 07:23:59;;;;;;;3.55;2.17;;;21.60;53.80;;;;;;5093124;28;20101;-71
2022/05/23 07:26:25;;;;;;;5.65;1.95;;;21.60;53.80;;;;;;5108274;28;20035;-69
2022/05/23 07:28:52;;;;;;;4.78;2.50;;;21.70;53.90;;;;;;5091683;28;20112;-69
2022/05/23 07:31:18;;;;;;;4.80;2.17;;;21.70;53.90;;;;;;5091889;28;20032;-70
2022/05/23 07:33:44;;;;;;;7.50;2.58;;;21.70;53.80;;;;;;5090851;28;20051;-70
2022/05/23 07:36:12;;;;;;;6.55;2.15;;;21.70;54.00;;;;;;5092195;28;21540;-68
2022/05/23 07:38:38;;;;;;;8.60;2.53;;;21.70;53.80;;;;;;5095620;28;20071;-67
2022/05/23 07:41:07;;;;;;;5.57;2.08;;;21.70;53.90;;;;;;5098347;28;20093;-67
2022/05/23 07:43:35;;;;;;;4.65;2.25;;;21.70;53.90;;;;;;5099010;28;20066;-68
2022/05/23 07:46:09;;;;;;;3.60;2.20;;;21.70;54.00;;;;;;5078961;28;20036;-67
2022/05/23 07:48:42;;;;;;;6.70;2.50;;;21.70;54.00;;;;;;5097335;28;20588;-70
2022/05/23 07:51:10;;;;;;;7.13;2.70;;;21.70;54.00;;;;;;5095657;28;20118;-70
2022/05/23 08:01:52;;;;;;;6.05;2.20;;;21.90;54.20;;;;;;5078791;28;20041;-70
2022/05/23 08:04:19;;;;;;;5.63;3.20;;;21.90;54.20;;;;;;5078198;28;20372;-71
2022/05/23 08:06:46;;;;;;;7.43;2.50;;;22.00;54.30;;;;;;5082981;28;20387;-70
2022/05/23 08:09:12;;;;;;;5.95;2.58;;;22.00;54.30;;;;;;5095113;28;20092;-69
2022/05/23 08:11:44;;;;;;;6.32;2.40;;;22.10;54.30;;;;;;5091268;28;20040;-68
2022/05/23 08:14:11;;;;;;;4.93;2.65;;;22.10;59.20;;;;;;5075937;28;20048;-70
2022/05/23 08:16:37;;;;;;;11.73;3.03;;;22.10;54.30;;;;;;5085433;28;20059;-69
2022/05/23 08:19:07;;;;;;;11.48;3.00;;;22.10;54.20;;;;;;5091566;28;20040;-70
2022/05/23 08:21:33;;;;;;;15.15;4.22;;;22.10;54.10;;;;;;5089272;28;20052;-70
2022/05/23 08:23:59;;;;;;;14.70;3.90;;;22.10;54.00;;;;;;5091437;28;20048;-70
2022/05/23 08:26:27;;;;;;;13.40;4.10;;;22.10;53.90;;;;;;5083313;28;20492;-70
2022/05/23 08:28:53;;;;;;;13.10;4.30;;;22.20;53.90;;;;;;5085958;28;20059;-70
2022/05/23 08:31:19;;;;;;;14.77;4.13;;;22.10;53.70;;;;;;5103862;28;20043;-70
2022/05/23 08:33:46;;;;;;;11.60;3.42;;;22.20;53.80;;;;;;5088566;28;20051;-70
2022/05/23 08:36:12;;;;;;;11.60;3.47;;;22.20;53.90;;;;;;5092246;28;20123;-70
2022/05/23 08:38:38;;;;;;;11.13;3.45;;;22.20;53.80;;;;;;5110626;28;20135;-70
2022/05/23 08:41:16;;;;;;;10.43;3.53;;;22.20;53.80;;;;;;5109756;28;20050;-70
2022/05/23 08:43:52;;;;;;;10.85;3.10;;;22.20;53.80;;;;;;5096635;28;20040;-70
2022/05/23 08:46:25;;;;;;;10.73;3.45;;;22.30;53.70;;;;;;5093214;28;20041;-70
2022/05/23 08:49:09;;;;;;;7.82;3.15;;;22.30;53.70;;;;;;5089827;28;20044;-70
2022/05/23 08:51:44;;;;;;;9.05;3.53;;;22.30;53.60;;;;;;5090164;28;20051;-70
2022/05/23 08:54:10;;;;;;;9.52;3.50;;;22.30;53.70;;;;;;5086725;28;20127;-70
2022/05/23 08:56:41;;;;;;;10.15;2.97;;;22.30;53.70;;;;;;5098240;28;20515;-70
2022/05/23 08:59:43;;;;;;;9.77;3.13;;;22.30;53.80;;;;;;5110856;28;20044;-69
2022/05/23 09:02:18;;;;;;;9.60;2.88;;;22.40;53.50;;;;;;5074238;28;20043;-68
2022/05/23 09:04:48;;;;;;;11.90;3.00;;;22.50;53.60;;;;;;5101611;28;20089;-69
2022/05/23 09:07:28;;;;;;;7.10;3.10;;;22.40;53.50;;;;;;5104144;28;20039;-70
2022/05/23 09:09:58;;;;;;;7.53;3.20;;;22.50;53.50;;;;;;5092178;28;20119;-69
2022/05/23 09:12:23;;;;;;;6.47;2.60;;;22.50;53.60;;;;;;5096920;28;20050;-72
2022/05/23 09:14:49;;;;;;;7.15;2.88;;;22.50;53.70;;;;;;5109767;28;20047;-71
2022/05/23 09:17:29;;;;;;;7.97;2.92;;;22.50;53.80;;;;;;5097507;28;20132;-70
